createdAt,value
2024-02-29T00:02:01.632Z,47.38
2024-02-29T00:05:05.062Z,39.25
2024-02-29T00:08:07.791Z,44.15
2024-02-29T00:11:11.472Z,37.75
2024-02-29T00:14:14.145Z,41.83
2024-02-29T00:17:16.882Z,34.83
2024-02-29T00:20:19.550Z,31.58
2024-02-29T00:23:22.327Z,28.27
2024-02-29T00:26:24.875Z,23.50
2024-02-29T00:29:29.594Z,23.02
2024-02-29T00:32:32.163Z,28.15
2024-02-29T00:35:34.714Z,26.60
2024-02-29T00:38:38.420Z,30.95
2024-02-29T00:41:40.945Z,29.75
2024-02-29T00:44:43.531Z,28.63
2024-02-29T00:47:46.129Z,29.33
2024-02-29T00:50:49.040Z,31.38
2024-02-29T00:53:51.745Z,36.80
2024-02-29T00:56:54.402Z,34.38
2024-02-29T00:59:57.030Z,33.92
2024-02-29T01:02:59.724Z,42.47
2024-02-29T01:06:02.652Z,44.80
2024-02-29T01:09:05.647Z,36.17
2024-02-29T01:12:10.046Z,38.25
2024-02-29T01:15:14.058Z,39.23
2024-02-29T01:18:16.928Z,33.35
2024-02-29T01:21:19.612Z,32.20
2024-02-29T01:24:22.247Z,30.33
2024-02-29T01:27:24.807Z,33.75
2024-02-29T01:30:28.374Z,34.33
2024-02-29T01:33:31.078Z,33.53
2024-02-29T01:36:33.849Z,32.67
2024-02-29T01:39:36.854Z,28.67
2024-02-29T01:42:43.102Z,27.98
2024-02-29T01:45:46.869Z,27.60
2024-02-29T01:48:49.915Z,27.70
2024-02-29T01:51:53.094Z,29.60
2024-02-29T01:54:55.895Z,29.93
2024-02-29T01:57:58.614Z,29.08
2024-02-29T02:01:01.968Z,29.77
2024-02-29T02:04:05.034Z,31.50
2024-02-29T02:07:09.803Z,31.27
2024-02-29T02:10:13.333Z,27.10
2024-02-29T02:13:16.234Z,27.20
2024-02-29T02:16:19.083Z,32.47
2024-02-29T02:19:21.666Z,32.40
2024-02-29T02:22:24.288Z,31.33
2024-02-29T02:25:26.852Z,29.45
2024-02-29T02:28:30.750Z,26.25
2024-02-29T02:31:33.612Z,28.40
2024-02-29T02:34:36.281Z,29.58
2024-02-29T02:37:39.779Z,30.40
2024-02-29T02:40:42.385Z,24.70
2024-02-29T02:43:52.104Z,26.00
2024-02-29T02:46:55.759Z,24.40
2024-02-29T02:49:58.511Z,26.63
2024-02-29T02:53:01.162Z,29.23
2024-02-29T02:56:05.125Z,32.08
2024-02-29T02:59:07.639Z,33.35
2024-02-29T03:02:10.495Z,35.75
2024-02-29T03:05:14.040Z,32.35
2024-02-29T03:08:16.557Z,35.43
2024-02-29T03:11:19.465Z,37.53
2024-02-29T03:14:22.053Z,36.65
2024-02-29T03:17:24.670Z,34.17
2024-02-29T03:20:27.966Z,34.58
2024-02-29T03:23:30.676Z,31.13
2024-02-29T03:26:33.238Z,31.55
2024-02-29T03:29:35.777Z,32.38
2024-02-29T03:32:38.385Z,35.85
2024-02-29T03:35:41.013Z,32.20
2024-02-29T03:38:43.595Z,29.63
2024-02-29T03:41:46.097Z,26.45
2024-02-29T03:44:48.655Z,33.35
2024-02-29T03:47:51.351Z,31.70
2024-02-29T03:50:54.407Z,29.52
2024-02-29T03:53:56.998Z,31.77
2024-02-29T03:57:00.047Z,36.88
2024-02-29T04:00:12.128Z,36.95
2024-02-29T04:03:15.596Z,41.70
2024-02-29T04:06:18.318Z,44.63
2024-02-29T04:09:21.029Z,35.27
2024-02-29T04:12:24.015Z,34.33
2024-02-29T04:15:26.574Z,30.38
2024-02-29T04:18:29.393Z,27.23
2024-02-29T04:21:33.619Z,29.98
2024-02-29T04:24:36.410Z,29.77
2024-02-29T04:27:39.254Z,31.05
2024-02-29T04:30:45.025Z,34.60
2024-02-29T04:33:51.638Z,32.03
2024-02-29T04:36:54.681Z,27.58
2024-02-29T04:39:57.414Z,32.70
2024-02-29T04:43:00.028Z,28.67
2024-02-29T04:46:03.899Z,30.50
2024-02-29T04:49:06.609Z,33.70
2024-02-29T04:52:09.439Z,33.55
2024-02-29T04:55:12.228Z,33.72
2024-02-29T04:58:14.856Z,35.65
2024-02-29T05:01:18.317Z,35.80
2024-02-29T05:04:20.980Z,36.28
2024-02-29T05:07:23.733Z,36.45
2024-02-29T05:10:26.482Z,35.23
2024-02-29T05:13:29.136Z,34.58
2024-02-29T05:16:31.991Z,35.83
2024-02-29T05:19:36.289Z,47.00
2024-02-29T05:22:39.989Z,37.72
2024-02-29T05:25:42.574Z,38.20
2024-02-29T05:28:45.080Z,40.95
2024-02-29T05:31:54.251Z,43.13
2024-02-29T05:34:57.005Z,51.00
2024-02-29T05:37:59.922Z,53.15
2024-02-29T05:41:04.584Z,41.20
2024-02-29T05:44:08.154Z,49.75
2024-02-29T05:47:10.796Z,44.20
2024-02-29T05:50:13.423Z,43.57
2024-02-29T05:53:16.093Z,41.97
2024-02-29T05:56:18.799Z,40.40
2024-02-29T05:59:21.817Z,49.60
2024-02-29T06:02:24.440Z,50.30
2024-02-29T06:05:29.267Z,45.42
2024-02-29T06:08:32.224Z,41.30
2024-02-29T06:11:34.958Z,48.90
2024-02-29T06:14:37.523Z,39.70
2024-02-29T06:17:42.883Z,38.08
2024-02-29T06:20:45.856Z,42.17
2024-02-29T06:23:49.183Z,44.25
2024-02-29T06:26:54.800Z,47.80
2024-02-29T06:29:58.820Z,47.70
2024-02-29T06:33:02.440Z,40.55
2024-02-29T06:36:08.172Z,44.33
2024-02-29T06:39:12.559Z,44.90
2024-02-29T06:42:16.187Z,49.33
2024-02-29T06:45:19.196Z,41.70
2024-02-29T06:48:28.254Z,52.22
2024-02-29T06:51:31.193Z,53.27
2024-02-29T06:54:33.808Z,41.08
2024-02-29T06:57:37.467Z,44.15
2024-02-29T07:00:40.771Z,38.67
2024-02-29T07:03:43.514Z,39.90
2024-02-29T07:06:46.476Z,43.75
2024-02-29T07:09:51.156Z,38.13
2024-02-29T07:12:53.968Z,35.10
2024-02-29T07:16:00.488Z,39.40
2024-02-29T07:19:03.765Z,39.08
2024-02-29T07:22:07.040Z,43.07
2024-02-29T07:25:10.196Z,46.60
2024-02-29T07:28:15.984Z,39.03
2024-02-29T07:31:22.330Z,43.78
2024-02-29T07:34:25.721Z,35.50
2024-02-29T07:37:29.721Z,39.75
2024-02-29T07:40:32.737Z,36.40
2024-02-29T07:43:35.317Z,40.73
2024-02-29T07:46:38.192Z,39.85
2024-02-29T07:49:40.964Z,38.20
2024-02-29T07:52:43.546Z,46.38
2024-02-29T07:55:46.655Z,44.10
2024-02-29T07:58:49.377Z,37.13
2024-02-29T08:01:52.064Z,31.88
2024-02-29T08:04:55.054Z,29.20
2024-02-29T08:07:57.726Z,28.63
2024-02-29T08:11:00.867Z,28.10
2024-02-29T08:14:03.584Z,33.22
2024-02-29T08:17:07.297Z,33.58
2024-02-29T08:20:11.733Z,28.37
2024-02-29T08:23:16.883Z,27.02
2024-02-29T08:26:19.972Z,28.40
2024-02-29T08:29:22.641Z,36.08
2024-02-29T08:32:25.347Z,34.13
2024-02-29T08:35:28.592Z,31.38
2024-02-29T08:38:32.103Z,29.95
2024-02-29T08:41:34.836Z,28.38
2024-02-29T08:44:37.753Z,25.80
2024-02-29T08:47:41.653Z,30.70
2024-02-29T08:50:46.651Z,26.50
2024-02-29T08:53:49.340Z,30.00
2024-02-29T08:56:53.721Z,23.23
2024-02-29T08:59:56.386Z,25.08
2024-02-29T09:02:59.096Z,28.70
2024-02-29T09:06:01.941Z,27.30
2024-02-29T09:09:04.966Z,31.63
2024-02-29T09:12:09.703Z,28.48
2024-02-29T09:15:15.043Z,28.10
2024-02-29T09:18:17.652Z,26.67
2024-02-29T09:21:20.404Z,24.75
2024-02-29T09:24:23.204Z,23.87
2024-02-29T09:27:26.839Z,25.08
2024-02-29T09:30:29.525Z,25.08
2024-02-29T09:33:32.327Z,26.08
2024-02-29T09:36:36.045Z,34.00
2024-02-29T09:39:39.017Z,25.93
2024-02-29T09:42:41.756Z,31.25
2024-02-29T09:45:44.860Z,29.00
2024-02-29T09:48:49.367Z,24.02
2024-02-29T09:51:55.198Z,28.50
2024-02-29T09:55:05.307Z,33.30
2024-02-29T09:58:09.764Z,25.23
2024-02-29T10:01:13.231Z,27.25
2024-02-29T10:04:16.187Z,27.38
2024-02-29T10:07:18.979Z,29.00
2024-02-29T10:10:22.880Z,25.70
2024-02-29T10:13:25.791Z,31.30
2024-02-29T10:16:29.191Z,34.15
2024-02-29T10:19:34.697Z,32.47
2024-02-29T10:22:40.200Z,35.00
2024-02-29T10:25:43.314Z,33.33
2024-02-29T10:28:46.429Z,33.30
2024-02-29T10:31:49.384Z,39.58
2024-02-29T10:34:52.127Z,33.75
2024-02-29T10:37:56.711Z,37.77
2024-02-29T10:41:04.418Z,34.40
2024-02-29T10:44:10.601Z,32.72
2024-02-29T10:47:16.927Z,28.20
2024-02-29T10:50:27.085Z,28.08
2024-02-29T10:53:40.067Z,25.83
2024-02-29T10:56:45.974Z,30.83
2024-02-29T10:59:59.538Z,38.88
2024-02-29T11:03:02.526Z,31.50
2024-02-29T11:06:11.298Z,22.75
2024-02-29T11:09:19.466Z,26.30
2024-02-29T11:12:30.474Z,21.97
2024-02-29T11:15:34.641Z,25.75
2024-02-29T11:18:39.407Z,23.50
2024-02-29T11:21:42.443Z,21.60
2024-02-29T11:24:47.662Z,35.17
2024-02-29T11:27:53.894Z,25.37
2024-02-29T11:31:08.342Z,28.55
2024-02-29T11:34:12.869Z,23.35
2024-02-29T11:37:16.095Z,28.05
2024-02-29T11:40:21.489Z,21.30
2024-02-29T11:43:26.307Z,25.57
2024-02-29T11:46:30.518Z,24.55
2024-02-29T11:49:35.186Z,28.60
2024-02-29T11:52:38.555Z,28.65
2024-02-29T11:55:41.379Z,31.97
2024-02-29T11:58:45.217Z,28.77
2024-02-29T12:01:48.194Z,29.25
2024-02-29T12:04:58.368Z,30.10
2024-02-29T12:08:01.438Z,29.88
2024-02-29T12:11:06.529Z,31.23
2024-02-29T12:14:09.579Z,31.47
2024-02-29T12:17:12.474Z,42.08
2024-02-29T12:20:18.441Z,31.30
2024-02-29T12:23:21.590Z,32.65
2024-02-29T12:26:25.129Z,32.23
2024-02-29T12:29:31.173Z,33.87
2024-02-29T12:32:34.497Z,35.63
2024-02-29T12:35:37.516Z,32.10
2024-02-29T12:38:44.248Z,34.65
2024-02-29T12:41:47.041Z,31.97
2024-02-29T12:44:51.110Z,31.67
2024-02-29T12:47:58.082Z,32.50
2024-02-29T12:51:01.358Z,35.70
2024-02-29T12:54:04.029Z,34.25
2024-02-29T12:57:11.203Z,33.27
2024-02-29T13:00:26.306Z,36.30
2024-02-29T13:03:29.647Z,33.85
2024-02-29T13:06:32.690Z,36.63
2024-02-29T13:09:38.308Z,32.13
2024-02-29T13:12:45.348Z,33.07
2024-02-29T13:15:54.105Z,34.17
2024-02-29T13:18:58.353Z,29.77
2024-02-29T13:22:01.161Z,33.42
2024-02-29T13:25:04.854Z,32.75
2024-02-29T13:28:08.109Z,29.40
2024-02-29T13:31:11.028Z,33.43
2024-02-29T13:34:13.920Z,36.38
2024-02-29T13:37:19.528Z,30.38
2024-02-29T13:40:24.324Z,33.38
2024-02-29T13:43:27.328Z,32.13
2024-02-29T13:46:30.970Z,29.20
2024-02-29T13:49:34.082Z,39.15
2024-02-29T13:52:39.719Z,32.25
2024-02-29T13:55:44.404Z,30.92
2024-02-29T13:58:49.844Z,34.47
2024-02-29T14:01:52.829Z,29.73
2024-02-29T14:04:59.270Z,30.85
2024-02-29T14:08:02.796Z,29.45
2024-02-29T14:11:14.954Z,27.70
2024-02-29T14:14:21.224Z,33.77
2024-02-29T14:17:27.909Z,30.07
2024-02-29T14:20:37.997Z,33.90
2024-02-29T14:23:46.600Z,31.48
2024-02-29T14:26:53.439Z,30.67
2024-02-29T14:30:11.840Z,44.50
2024-02-29T14:33:16.512Z,56.70
2024-02-29T14:36:21.810Z,50.13
2024-02-29T14:39:25.082Z,56.22
2024-02-29T14:42:28.746Z,40.88
2024-02-29T14:45:31.758Z,33.03
2024-02-29T14:48:34.637Z,35.53
2024-02-29T14:51:37.701Z,48.30
2024-02-29T14:54:46.100Z,59.38
2024-02-29T14:57:48.947Z,72.07
2024-02-29T15:00:51.989Z,87.33
2024-02-29T15:03:55.332Z,52.83
2024-02-29T15:06:59.283Z,44.72
2024-02-29T15:10:02.525Z,46.53
2024-02-29T15:13:06.449Z,56.58
2024-02-29T15:16:09.495Z,64.20
2024-02-29T15:19:12.541Z,63.30
2024-02-29T15:22:15.485Z,57.15
2024-02-29T15:25:20.573Z,58.88
2024-02-29T15:28:25.708Z,57.95
2024-02-29T15:31:28.739Z,44.50
2024-02-29T15:34:31.510Z,40.00
2024-02-29T15:37:34.188Z,44.83
2024-02-29T15:40:37.235Z,41.53
2024-02-29T15:43:41.075Z,42.67
2024-02-29T15:46:45.787Z,47.00
2024-02-29T15:49:49.978Z,45.27
2024-02-29T15:52:52.619Z,50.53
2024-02-29T15:55:55.528Z,47.92
2024-02-29T15:58:58.260Z,51.22
2024-02-29T16:02:03.603Z,83.40
2024-02-29T16:05:06.536Z,81.03
2024-02-29T16:08:09.434Z,76.45
2024-02-29T16:11:12.604Z,126.97
2024-02-29T16:14:15.251Z,130.75
2024-02-29T16:17:17.875Z,131.47
2024-02-29T16:20:25.969Z,100.07
2024-02-29T16:23:28.925Z,114.97
2024-02-29T16:26:32.001Z,104.68
2024-02-29T16:29:35.602Z,93.38
2024-02-29T16:32:38.343Z,91.17
2024-02-29T16:35:41.148Z,82.03
2024-02-29T16:38:43.869Z,80.78
2024-02-29T16:41:46.964Z,84.78
2024-02-29T16:44:50.990Z,75.57
2024-02-29T16:47:53.696Z,117.53
2024-02-29T16:51:00.077Z,128.38
2024-02-29T16:54:03.031Z,118.85
2024-02-29T16:57:06.515Z,165.40
2024-02-29T17:00:10.345Z,160.67
2024-02-29T17:03:13.210Z,254.93
2024-02-29T17:06:16.728Z,225.93
2024-02-29T17:09:19.883Z,137.82
2024-02-29T17:12:22.845Z,146.90
2024-02-29T17:15:26.764Z,114.53
2024-02-29T17:18:30.882Z,101.45
2024-02-29T17:21:33.432Z,103.63
2024-02-29T17:24:36.250Z,101.20
2024-02-29T17:27:38.982Z,92.23
2024-02-29T17:30:41.586Z,116.97
2024-02-29T17:33:44.355Z,92.25
2024-02-29T17:36:47.122Z,85.47
2024-02-29T17:39:50.932Z,91.63
2024-02-29T17:42:54.003Z,82.95
2024-02-29T17:45:56.840Z,80.43
2024-02-29T17:48:59.811Z,83.23
2024-02-29T17:52:04.748Z,69.97
2024-02-29T17:55:07.784Z,77.53
2024-02-29T17:58:10.594Z,64.15
2024-02-29T18:01:13.701Z,57.03
2024-02-29T18:04:16.639Z,61.20
2024-02-29T18:07:19.341Z,71.90
2024-02-29T18:10:22.303Z,47.30
2024-02-29T18:13:25.354Z,50.70
2024-02-29T18:16:29.455Z,47.80
2024-02-29T18:19:33.170Z,51.67
2024-02-29T18:22:36.335Z,65.38
2024-02-29T18:25:39.496Z,87.60
2024-02-29T18:28:42.434Z,82.10
2024-02-29T18:31:46.319Z,78.07
2024-02-29T18:34:48.898Z,80.72
2024-02-29T18:37:52.078Z,95.30
2024-02-29T18:40:55.059Z,116.28
2024-02-29T18:43:59.773Z,129.40
2024-02-29T18:47:02.913Z,123.40
2024-02-29T18:50:06.423Z,114.85
2024-02-29T18:53:11.097Z,106.20
2024-02-29T18:56:14.210Z,91.60
2024-02-29T18:59:17.689Z,95.33
2024-02-29T19:02:20.534Z,104.45
2024-02-29T19:05:23.606Z,105.07
2024-02-29T19:08:26.707Z,104.38
2024-02-29T19:11:29.721Z,112.70
2024-02-29T19:14:32.457Z,106.43
2024-02-29T19:17:35.336Z,105.72
2024-02-29T19:20:39.646Z,146.23
2024-02-29T19:23:42.193Z,114.07
2024-02-29T19:26:46.099Z,88.80
2024-02-29T19:29:51.587Z,101.97
2024-02-29T19:32:54.540Z,122.43
2024-02-29T19:35:57.327Z,89.57
2024-02-29T19:39:00.242Z,85.75
2024-02-29T19:42:04.354Z,78.63
2024-02-29T19:45:10.583Z,62.27
2024-02-29T19:48:13.166Z,69.72
2024-02-29T19:51:16.224Z,66.75
2024-02-29T19:54:19.356Z,71.57
2024-02-29T19:57:22.168Z,72.23
2024-02-29T20:00:29.004Z,72.65
2024-02-29T20:03:31.847Z,76.22
2024-02-29T20:06:34.864Z,66.93
2024-02-29T20:09:38.150Z,64.47
2024-02-29T20:12:41.519Z,61.63
2024-02-29T20:15:44.344Z,66.03
2024-02-29T20:18:47.305Z,68.10
2024-02-29T20:21:50.292Z,69.90
2024-02-29T20:24:54.765Z,73.05
2024-02-29T20:27:57.889Z,68.70
2024-02-29T20:31:00.868Z,72.20
2024-02-29T20:34:03.907Z,66.20
2024-02-29T20:37:06.697Z,65.28
2024-02-29T20:40:10.302Z,64.13
2024-02-29T20:43:13.631Z,59.10
2024-02-29T20:46:17.872Z,54.80
2024-02-29T20:49:20.926Z,52.53
2024-02-29T20:52:27.049Z,57.90
2024-02-29T20:55:31.405Z,49.73
2024-02-29T20:58:36.768Z,49.00
2024-02-29T21:01:39.908Z,55.28
2024-02-29T21:04:44.237Z,56.38
2024-02-29T21:07:47.187Z,54.50
2024-02-29T21:10:50.020Z,58.80
2024-02-29T21:13:54.692Z,56.47
2024-02-29T21:16:57.358Z,54.08
2024-02-29T21:20:00.247Z,53.83
2024-02-29T21:23:04.013Z,55.42
2024-02-29T21:26:06.706Z,57.03
2024-02-29T21:29:09.893Z,78.70
2024-02-29T21:32:13.549Z,77.40
2024-02-29T21:35:20.448Z,67.63
2024-02-29T21:38:23.090Z,59.90
2024-02-29T21:41:26.099Z,62.70
2024-02-29T21:44:28.826Z,58.92
2024-02-29T21:47:31.421Z,62.58
2024-02-29T21:50:35.180Z,59.40
2024-02-29T21:53:37.844Z,56.60
2024-02-29T21:56:40.615Z,67.03
2024-02-29T21:59:45.018Z,63.83
2024-02-29T22:02:47.909Z,63.83
2024-02-29T22:05:50.589Z,64.13
2024-02-29T22:08:53.257Z,63.67
2024-02-29T22:11:57.199Z,66.65
2024-02-29T22:14:59.914Z,57.23
2024-02-29T22:18:02.614Z,52.05
2024-02-29T22:21:05.584Z,54.67
2024-02-29T22:24:11.865Z,55.33
2024-02-29T22:27:15.436Z,56.23
2024-02-29T22:30:18.984Z,51.20
2024-02-29T22:33:21.656Z,57.22
2024-02-29T22:36:24.525Z,52.63
2024-02-29T22:39:27.346Z,53.27
2024-02-29T22:42:29.943Z,52.22
2024-02-29T22:45:32.577Z,53.33
2024-02-29T22:48:35.687Z,53.30
2024-02-29T22:51:38.217Z,51.77
2024-02-29T22:54:41.092Z,55.00
2024-02-29T22:57:44.033Z,75.00
2024-02-29T23:00:53.056Z,64.05
2024-02-29T23:03:58.509Z,59.83
2024-02-29T23:07:01.418Z,62.83
2024-02-29T23:10:04.535Z,62.55
2024-02-29T23:13:07.920Z,62.23
2024-02-29T23:16:10.676Z,57.70
2024-02-29T23:19:13.254Z,59.50
2024-02-29T23:22:16.282Z,49.08
2024-02-29T23:25:21.392Z,50.33
2024-02-29T23:28:25.677Z,45.72
2024-02-29T23:31:28.422Z,45.30
2024-02-29T23:34:31.032Z,49.80
2024-02-29T23:37:33.717Z,47.30
2024-02-29T23:40:36.455Z,49.70
2024-02-29T23:43:39.640Z,54.00
2024-02-29T23:46:42.779Z,48.67
2024-02-29T23:49:45.312Z,47.03
2024-02-29T23:52:47.851Z,49.58
2024-02-29T23:55:50.399Z,38.95
2024-02-29T23:58:52.982Z,41.08
